Terminal Aerodrome Forecast
Issued by NWS Wilmington, OH

Current Version | Previous Version | Graphics & Text | Print | Product List | Glossary On
Versions: 1 2 3 4 5 6 7 8 9 10 11 12 13 14 15 16 17
000
FTUS41 KILN 130500
TAFILN
TAF
KILN 130522Z 1306/1406 20006KT P6SM SCT080 BKN120
     FM131400 20012KT P6SM VCSH BKN060
     FM131800 23014G22KT P6SM VCTS BKN040CB
     FM132000 25014G24KT 5SM -SHRA VCTS OVC035CB
     FM140000 25012G18KT P6SM VCSH BKN035
     FM140500 28010KT P6SM VCSH BKN040=

USA.gov is the U.S. government's official web portal to all federal, state and local government web resources and services.